EGPN/DND METAR and TAF weather

Enter ICAO airport designator
Station Type Date Time Source
EGPN METAR 2019/12/11 15:20 UTC NOAA

EGPN 111520Z 25017KT 9999 FEW010 06/03 Q0991


Station Type Date Time Source
EGPN Decoded METAR 2019/12/11 15:20 UTC NOAA

Dundee / Riverside, United Kingdom (EGPN) 56-27N 003-01W
Dec 11, 2019 - 10:20 AM EST / 2019.12.11 1520 UTC
Wind: from the WSW (250 degrees) at 20 MPH (17 KT):0
Visibility: greater than 7 mile(s):0
Sky conditions: mostly clear
Temperature: 42 F (6 C)
Dew Point: 37 F (3 C)
Relative Humidity: 81%
Pressure (altimeter): 29.26 in. Hg (0991 hPa)
ob: EGPN 111520Z 25017KT 9999 FEW010 06/03 Q0991
cycle: 15

Station Type Date Time Source
EGPN TAF 2019/01/15 18:56 UTC NOAA

TAF EGPN 151750Z 1518/1621 CNL

Example: see airport list